Christina O — C6FN7 — position and weather

sailwx.info

Track history (hours):
 
Tides and Currents Weather Stations Pressure Air Temp Water Temp Dewpoint Dewpoint Depression Visibility Wind Speed Wind Dir Waves Ship Positions

Christina O

Operator: V Ships Leisure SAM

Last reported at 2017-Jan-07 06:14 UTC. Time now 2017-Jan-19 21:21 UTC.
Position N 37°15' W 123°23'.
Warning: this ship's position is 12 days out of date.

Length 186 m; draft 6.1 m.

Type: Passenger vessel. MMSI: 308322000.

Date/timePositionNaut miles runAvg speedWind from/ knotsBaromVisibWave heightAir tempDewpointWater temp
2017-Jan-07 06:14N 37°15' W 123°23'1116.1
2017-Jan-07 05:34N 37°23' W 123°15'1616.3
2017-Jan-07 04:34N 37°35' W 123°02'1616.3
2017-Jan-07 03:33N 37°43' W 122°44'1312.9
2017-Jan-07 02:34N 37°49' W 122°29'4 3.7
2017-Jan-07 01:28N 37°48' W 122°24'0 0.0
2017-Jan-07 00:28N 37°48' W 122°24'0 0.0
2017-Jan-06 23:28N 37°48' W 122°24'0 0.0
2017-Jan-06 22:32N 37°48' W 122°24'0 0.0
2017-Jan-06 21:28N 37°48' W 122°24'0 0.0
2017-Jan-06 20:31N 37°48' W 122°24'0 0.0
2017-Jan-06 19:31N 37°48' W 122°24'0 0.0
2017-Jan-06 18:31N 37°48' W 122°24'0 0.0
2017-Jan-06 17:31N 37°48' W 122°24'0 0.0
2017-Jan-06 16:31N 37°48' W 122°24'0 0.0
2017-Jan-06 15:31N 37°48' W 122°24'0 0.3
2017-Jan-06 14:33N 37°49' W 122°24'1010.5
2017-Jan-06 13:34N 37°46' W 122°37'9 8.5
2017-Jan-06 12:33N 37°38' W 122°40'1413.4
2017-Jan-06 11:31N 37°24' W 122°40'1313.7
2017-Jan-06 10:33N 37°11' W 122°40'1413.7
2017-Jan-06 09:33N 36°58' W 122°33'1413.6
2017-Jan-06 08:33N 36°46' W 122°27'1413.7
2017-Jan-06 07:33N 36°33' W 122°20'1414.0
2017-Jan-06 06:33N 36°20' W 122°14'1413.6
2017-Jan-06 05:33N 36°08' W 122°05'1413.8
2017-Jan-06 04:33N 35°56' W 121°57'1413.7
2017-Jan-06 03:33N 35°44' W 121°49'1514.6
2017-Jan-06 02:33N 35°31' W 121°40'1514.7
2017-Jan-06 01:32N 35°18' W 121°32'1614.8
2017-Jan-06 00:28N 35°04' W 121°24'18814.4
2017-Jan-05 11:29N 33°05' W 118°29'1414.9
2017-Jan-05 10:33N 32°59' W 118°14'1514.9
2017-Jan-05 09:33N 32°53' W 117°58'1514.9
2017-Jan-05 08:33N 32°46' W 117°42'1514.9
2017-Jan-05 07:33N 32°40' W 117°26'1010.4
2017-Jan-05 06:33N 32°40' W 117°14'4 3.6
2017-Jan-05 05:33N 32°43' W 117°10'0 0.0
2017-Jan-05 04:33N 32°43' W 117°10'0 0.0
2017-Jan-05 03:33N 32°43' W 117°10'0 0.0
2017-Jan-05 02:33N 32°43' W 117°10'0 0.0
2017-Jan-05 01:33N 32°43' W 117°10'0 0.0
2017-Jan-05 00:33N 32°43' W 117°10'0 0.0
2017-Jan-04 23:33N 32°43' W 117°10'0 0.0
2017-Jan-04 22:33N 32°43' W 117°10'0 0.0
2017-Jan-04 21:33N 32°43' W 117°10'0 0.0
2017-Jan-04 20:33N 32°43' W 117°10'4 4.2
2017-Jan-04 19:33N 32°40' W 117°14'1312.8
2017-Jan-04 18:33N 32°28' W 117°20'1515.2
2017-Jan-04 17:34N 32°13' W 117°17'1817.5
2017-Jan-04 16:33N 31°56' W 117°11'  
Track history (hours):
 
Tides and Currents Weather Stations Pressure Air Temp Water Temp Dewpoint Dewpoint Depression Visibility Wind Speed Wind Dir Waves Ship Positions

Christina O

Operator: V Ships Leisure SAM

Last reported at 2017-Jan-07 06:14 UTC. Time now 2017-Jan-19 21:21 UTC.
Position N 37°15' W 123°23'.
Warning: this ship's position is 12 days out of date.

Length 186 m; draft 6.1 m.

Type: Passenger vessel. MMSI: 308322000.

Date/timePositionNaut miles runAvg speedWind from/ knotsBaromVisibWave heightAir tempDewpointWater temp
2017-Jan-07 06:14N 37°15' W 123°23'1116.1
2017-Jan-07 05:34N 37°23' W 123°15'1616.3
2017-Jan-07 04:34N 37°35' W 123°02'1616.3
2017-Jan-07 03:33N 37°43' W 122°44'1312.9
2017-Jan-07 02:34N 37°49' W 122°29'4 3.7
2017-Jan-07 01:28N 37°48' W 122°24'0 0.0
2017-Jan-07 00:28N 37°48' W 122°24'0 0.0
2017-Jan-06 23:28N 37°48' W 122°24'0 0.0
2017-Jan-06 22:32N 37°48' W 122°24'0 0.0
2017-Jan-06 21:28N 37°48' W 122°24'0 0.0
2017-Jan-06 20:31N 37°48' W 122°24'0 0.0
2017-Jan-06 19:31N 37°48' W 122°24'0 0.0
2017-Jan-06 18:31N 37°48' W 122°24'0 0.0
2017-Jan-06 17:31N 37°48' W 122°24'0 0.0
2017-Jan-06 16:31N 37°48' W 122°24'0 0.0
2017-Jan-06 15:31N 37°48' W 122°24'0 0.3
2017-Jan-06 14:33N 37°49' W 122°24'1010.5
2017-Jan-06 13:34N 37°46' W 122°37'9 8.5
2017-Jan-06 12:33N 37°38' W 122°40'1413.4
2017-Jan-06 11:31N 37°24' W 122°40'1313.7
2017-Jan-06 10:33N 37°11' W 122°40'1413.7
2017-Jan-06 09:33N 36°58' W 122°33'1413.6
2017-Jan-06 08:33N 36°46' W 122°27'1413.7
2017-Jan-06 07:33N 36°33' W 122°20'1414.0
2017-Jan-06 06:33N 36°20' W 122°14'1413.6
2017-Jan-06 05:33N 36°08' W 122°05'1413.8
2017-Jan-06 04:33N 35°56' W 121°57'1413.7
2017-Jan-06 03:33N 35°44' W 121°49'1514.6
2017-Jan-06 02:33N 35°31' W 121°40'1514.7
2017-Jan-06 01:32N 35°18' W 121°32'1614.8
2017-Jan-06 00:28N 35°04' W 121°24'18814.4
2017-Jan-05 11:29N 33°05' W 118°29'1414.9
2017-Jan-05 10:33N 32°59' W 118°14'1514.9
2017-Jan-05 09:33N 32°53' W 117°58'1514.9
2017-Jan-05 08:33N 32°46' W 117°42'1514.9
2017-Jan-05 07:33N 32°40' W 117°26'1010.4
2017-Jan-05 06:33N 32°40' W 117°14'4 3.6
2017-Jan-05 05:33N 32°43' W 117°10'0 0.0
2017-Jan-05 04:33N 32°43' W 117°10'0 0.0
2017-Jan-05 03:33N 32°43' W 117°10'0 0.0
2017-Jan-05 02:33N 32°43' W 117°10'0 0.0
2017-Jan-05 01:33N 32°43' W 117°10'0 0.0
2017-Jan-05 00:33N 32°43' W 117°10'0 0.0
2017-Jan-04 23:33N 32°43' W 117°10'0 0.0
2017-Jan-04 22:33N 32°43' W 117°10'0 0.0
2017-Jan-04 21:33N 32°43' W 117°10'0 0.0
2017-Jan-04 20:33N 32°43' W 117°10'4 4.2
2017-Jan-04 19:33N 32°40' W 117°14'1312.8
2017-Jan-04 18:33N 32°28' W 117°20'1515.2
2017-Jan-04 17:34N 32°13' W 117°17'1817.5
2017-Jan-04 16:33N 31°56' W 117°11'  

Dump ship's entire track history